createdAt,value
2023-04-22T00:01:07.174Z,68.16
2023-04-22T00:03:33.893Z,69.55
2023-04-22T00:06:00.927Z,70.54
2023-04-22T00:08:27.404Z,70.16
2023-04-22T00:10:53.795Z,70.34
2023-04-22T00:13:20.165Z,70.55
2023-04-22T00:15:46.566Z,70.75
2023-04-22T00:18:14.125Z,70.87
2023-04-22T00:20:40.775Z,71.37
2023-04-22T00:23:07.193Z,70.64
2023-04-22T00:25:33.608Z,70.91
2023-04-22T00:28:00.010Z,71.41
2023-04-22T00:30:26.422Z,72.12
2023-04-22T00:32:52.853Z,71.76
2023-04-22T00:35:19.233Z,72.01
2023-04-22T00:37:45.748Z,71.95
2023-04-22T00:40:12.169Z,71.35
2023-04-22T00:42:38.724Z,72.13
2023-04-22T00:45:05.868Z,70.32
2023-04-22T00:47:32.392Z,71.68
2023-04-22T00:49:58.754Z,70.94
2023-04-22T00:52:25.129Z,71.26
2023-04-22T00:54:52.362Z,71.01
2023-04-22T00:57:18.840Z,70.29
2023-04-22T00:59:45.207Z,70.93
2023-04-22T01:02:11.708Z,69.44
2023-04-22T01:04:38.135Z,70.78
2023-04-22T01:07:04.691Z,70.50
2023-04-22T01:09:31.064Z,69.85
2023-04-22T01:11:57.447Z,70.20
2023-04-22T01:14:23.870Z,70.60
2023-04-22T01:16:50.541Z,71.25
2023-04-22T01:19:17.098Z,71.39
2023-04-22T01:21:45.015Z,71.03
2023-04-22T01:24:11.424Z,72.27
2023-04-22T01:26:37.752Z,72.68
2023-04-22T01:29:04.223Z,71.35
2023-04-22T01:31:30.617Z,72.02
2023-04-22T01:33:57.800Z,71.08
2023-04-22T01:36:25.014Z,72.33
2023-04-22T01:38:51.423Z,70.04
2023-04-22T01:41:17.841Z,70.08
2023-04-22T01:43:44.189Z,68.90
2023-04-22T01:46:10.771Z,70.54
2023-04-22T01:48:37.199Z,70.37
2023-04-22T01:51:03.569Z,70.33
2023-04-22T01:53:30.053Z,69.80
2023-04-22T01:55:56.417Z,69.24
2023-04-22T01:58:22.803Z,70.08
2023-04-22T02:00:49.596Z,70.19
2023-04-22T02:03:16.199Z,70.15
2023-04-22T02:05:42.575Z,71.16
2023-04-22T02:08:09.045Z,70.68
2023-04-22T02:10:35.998Z,71.02
2023-04-22T02:13:02.398Z,70.32
2023-04-22T02:15:29.314Z,71.01
2023-04-22T02:17:55.833Z,70.90
2023-04-22T02:20:22.307Z,70.42
2023-04-22T02:22:48.707Z,70.18
2023-04-22T02:25:15.064Z,69.64
2023-04-22T02:27:42.126Z,69.42
2023-04-22T02:30:08.629Z,69.73
2023-04-22T02:32:36.833Z,68.88
2023-04-22T02:35:03.290Z,69.63
2023-04-22T02:37:29.605Z,69.15
2023-04-22T02:39:55.974Z,69.01
2023-04-22T02:42:22.348Z,69.28
2023-04-22T02:44:48.754Z,68.88
2023-04-22T02:47:15.099Z,68.09
2023-04-22T02:49:41.674Z,69.32
2023-04-22T02:52:09.034Z,67.69
2023-04-22T02:54:35.501Z,67.70
2023-04-22T02:57:02.891Z,67.77
2023-04-22T02:59:29.269Z,69.04
2023-04-22T03:01:55.810Z,69.04
2023-04-22T03:04:54.419Z,69.72
2023-04-22T03:07:21.110Z,70.64
2023-04-22T03:09:48.099Z,70.64
2023-04-22T03:12:14.479Z,71.25
2023-04-22T03:14:40.872Z,70.61
2023-04-22T03:17:07.686Z,70.87
2023-04-22T03:19:34.407Z,70.88
2023-04-22T03:22:01.262Z,70.76
2023-04-22T03:24:29.998Z,70.70
2023-04-22T03:26:56.595Z,70.15
2023-04-22T03:29:22.965Z,70.46
2023-04-22T03:31:49.484Z,70.61
2023-04-22T03:34:16.423Z,70.01
2023-04-22T03:36:45.176Z,71.35
2023-04-22T03:39:12.867Z,71.74
2023-04-22T03:41:40.606Z,71.51
2023-04-22T03:44:07.016Z,71.56
2023-04-22T03:46:35.044Z,70.54
2023-04-22T03:49:15.625Z,70.21
2023-04-22T03:51:43.457Z,70.94
2023-04-22T03:54:13.710Z,70.50
2023-04-22T03:56:46.345Z,70.13
2023-04-22T03:59:12.792Z,69.69
2023-04-22T04:01:39.417Z,69.97
2023-04-22T04:04:07.782Z,69.73
2023-04-22T04:06:40.736Z,70.68
2023-04-22T04:09:07.118Z,71.24
2023-04-22T04:11:34.318Z,71.48
2023-04-22T04:14:03.469Z,70.77
2023-04-22T04:16:40.864Z,69.55
2023-04-22T04:19:13.572Z,69.43
2023-04-22T04:21:40.461Z,69.87
2023-04-22T04:24:07.189Z,69.62
2023-04-22T04:26:38.515Z,70.10
2023-04-22T04:29:20.188Z,69.84
2023-04-22T04:31:53.651Z,70.36
2023-04-22T04:34:20.652Z,68.37
2023-04-22T04:36:47.046Z,70.84
2023-04-22T04:39:20.662Z,70.26
2023-04-22T04:41:49.069Z,69.60
2023-04-22T04:44:18.128Z,69.15
2023-04-22T04:46:46.636Z,68.54
2023-04-22T04:49:13.069Z,68.75
2023-04-22T04:51:55.267Z,69.04
2023-04-22T04:54:22.090Z,68.09
2023-04-22T04:56:48.744Z,67.64
2023-04-22T04:59:15.826Z,68.49
2023-04-22T05:01:42.663Z,69.00
2023-04-22T05:06:40.849Z,68.70
2023-04-22T05:09:08.030Z,68.26
2023-04-22T05:11:35.460Z,68.28
2023-04-22T05:14:07.715Z,68.56
2023-04-22T05:16:38.851Z,68.28
2023-04-22T05:19:07.559Z,67.76
2023-04-22T05:21:34.580Z,67.85
2023-04-22T05:24:01.310Z,67.54
2023-04-22T05:26:28.689Z,66.62
2023-04-22T05:28:55.232Z,66.12
2023-04-22T05:31:22.095Z,66.63
2023-04-22T05:33:48.556Z,65.90
2023-04-22T05:36:15.387Z,66.02
2023-04-22T05:38:43.757Z,67.65
2023-04-22T05:41:10.158Z,67.35
2023-04-22T05:43:36.566Z,65.72
2023-04-22T05:46:10.999Z,66.51
2023-04-22T05:48:39.856Z,65.21
2023-04-22T05:51:09.632Z,65.11
2023-04-22T05:53:36.430Z,65.09
2023-04-22T05:56:02.991Z,65.72
2023-04-22T05:58:29.422Z,64.73
2023-04-22T06:01:00.612Z,64.64
2023-04-22T06:03:48.864Z,63.36
2023-04-22T06:06:15.646Z,64.95
2023-04-22T06:08:42.130Z,64.66
2023-04-22T06:11:10.270Z,66.30
2023-04-22T06:13:36.909Z,64.97
2023-04-22T06:16:05.173Z,63.94
2023-04-22T06:18:38.011Z,62.83
2023-04-22T06:21:10.513Z,62.55
2023-04-22T06:23:40.295Z,62.88
2023-04-22T06:26:06.739Z,63.22
2023-04-22T06:28:34.889Z,62.42
2023-04-22T06:31:05.733Z,61.57
2023-04-22T06:33:32.132Z,61.68
2023-04-22T06:35:58.649Z,60.98
2023-04-22T06:38:25.421Z,61.03
2023-04-22T06:41:11.496Z,61.60
2023-04-22T06:43:42.347Z,60.92
2023-04-22T06:46:08.843Z,60.56
2023-04-22T06:48:53.949Z,61.67
2023-04-22T06:51:37.828Z,62.10
2023-04-22T06:54:04.291Z,60.36
2023-04-22T06:56:30.972Z,59.40
2023-04-22T06:58:57.342Z,60.54
2023-04-22T07:01:23.925Z,60.00
2023-04-22T07:03:50.960Z,61.14
2023-04-22T07:06:18.713Z,58.73
2023-04-22T07:08:45.208Z,58.06
2023-04-22T07:11:13.208Z,57.54
2023-04-22T07:14:07.156Z,57.13
2023-04-22T07:16:33.576Z,57.18
2023-04-22T07:18:59.905Z,56.57
2023-04-22T07:21:26.364Z,54.70
2023-04-22T07:23:52.754Z,55.22
2023-04-22T07:26:19.163Z,55.12
2023-04-22T07:28:45.500Z,55.52
2023-04-22T07:31:11.866Z,54.95
2023-04-22T07:33:38.229Z,54.45
2023-04-22T07:36:04.621Z,55.32
2023-04-22T07:38:31.059Z,55.35
2023-04-22T07:40:57.399Z,54.01
2023-04-22T07:43:23.764Z,54.46
2023-04-22T07:45:50.467Z,53.83
2023-04-22T07:48:16.843Z,53.08
2023-04-22T07:50:43.213Z,53.67
2023-04-22T07:53:10.843Z,53.40
2023-04-22T07:55:37.200Z,52.65
2023-04-22T07:58:06.599Z,53.10
2023-04-22T08:00:33.082Z,53.30
2023-04-22T08:02:59.588Z,53.51
2023-04-22T08:05:26.287Z,52.20
2023-04-22T08:07:52.721Z,53.96
2023-04-22T08:10:19.056Z,51.67
2023-04-22T08:12:45.934Z,52.16
2023-04-22T08:15:12.420Z,52.25
2023-04-22T08:17:38.879Z,51.67
2023-04-22T08:20:07.961Z,52.13
2023-04-22T08:22:35.643Z,52.87
2023-04-22T08:25:02.006Z,53.22
2023-04-22T08:27:28.382Z,52.31
2023-04-22T08:29:54.765Z,52.15
2023-04-22T08:32:22.448Z,51.29
2023-04-22T08:34:51.880Z,50.79
2023-04-22T08:37:20.739Z,50.48
2023-04-22T08:39:47.133Z,50.60
2023-04-22T08:42:13.516Z,50.37
2023-04-22T08:44:39.896Z,49.80
2023-04-22T08:47:06.303Z,50.57
2023-04-22T08:49:32.745Z,50.45
2023-04-22T08:51:59.098Z,50.00
2023-04-22T08:54:25.933Z,49.33
2023-04-22T08:56:52.371Z,50.21
2023-04-22T08:59:18.764Z,50.04
2023-04-22T09:01:45.317Z,49.64
2023-04-22T09:04:11.959Z,49.23
2023-04-22T09:06:38.717Z,49.47
2023-04-22T09:09:05.258Z,49.27
2023-04-22T09:11:32.818Z,48.62
2023-04-22T09:13:59.211Z,48.41
2023-04-22T09:16:25.645Z,48.57
2023-04-22T09:18:52.104Z,48.55
2023-04-22T09:21:18.493Z,48.55
2023-04-22T09:23:45.009Z,48.36
2023-04-22T09:26:11.393Z,49.39
2023-04-22T09:28:37.890Z,48.13
2023-04-22T09:31:04.316Z,48.54
2023-04-22T09:33:30.821Z,48.18
2023-04-22T09:35:57.177Z,47.82
2023-04-22T09:38:23.679Z,47.39
2023-04-22T09:40:50.181Z,47.85
2023-04-22T09:43:16.544Z,47.22
2023-04-22T09:45:43.078Z,46.75
2023-04-22T09:48:09.636Z,47.06
2023-04-22T09:50:36.013Z,46.88
2023-04-22T09:53:02.415Z,47.24
2023-04-22T09:55:29.182Z,47.28
2023-04-22T09:57:55.665Z,46.90
2023-04-22T10:00:22.097Z,46.27
2023-04-22T10:02:48.619Z,46.48
2023-04-22T10:05:15.099Z,46.82
2023-04-22T10:07:41.600Z,46.28
2023-04-22T10:10:08.198Z,46.70
2023-04-22T10:12:36.023Z,46.13
2023-04-22T10:15:02.584Z,46.40
2023-04-22T10:17:28.970Z,46.95
2023-04-22T10:19:56.460Z,47.55
2023-04-22T10:22:22.830Z,48.08
2023-04-22T10:24:50.221Z,47.33
2023-04-22T10:27:16.583Z,46.98
2023-04-22T10:29:43.553Z,45.66
2023-04-22T10:32:10.989Z,46.05
2023-04-22T10:34:38.947Z,46.46
2023-04-22T10:37:05.354Z,46.01
2023-04-22T10:39:32.039Z,46.86
2023-04-22T10:41:58.514Z,47.29
2023-04-22T10:44:24.902Z,47.84
2023-04-22T10:46:52.125Z,47.78
2023-04-22T10:49:20.480Z,47.14
2023-04-22T10:51:46.862Z,48.73
2023-04-22T10:54:13.206Z,48.27
2023-04-22T10:56:45.641Z,47.32
2023-04-22T10:59:14.941Z,46.11
2023-04-22T11:01:41.404Z,46.57
2023-04-22T11:04:07.829Z,46.31
2023-04-22T11:06:34.297Z,46.57
2023-04-22T11:09:00.700Z,46.55
2023-04-22T11:11:27.459Z,45.75
2023-04-22T11:13:54.869Z,45.35
2023-04-22T11:16:22.305Z,44.42
2023-04-22T11:18:49.239Z,43.47
2023-04-22T11:21:15.836Z,43.45
2023-04-22T11:23:42.287Z,43.80
2023-04-22T11:26:08.888Z,44.75
2023-04-22T11:28:35.505Z,43.84
2023-04-22T11:31:02.001Z,44.28
2023-04-22T11:33:28.589Z,44.22
2023-04-22T11:35:55.426Z,43.23
2023-04-22T11:38:21.809Z,43.55
2023-04-22T11:40:48.896Z,43.11
2023-04-22T11:43:15.517Z,43.95
2023-04-22T11:45:42.235Z,42.90
2023-04-22T11:48:08.647Z,43.58
2023-04-22T11:50:35.046Z,44.29
2023-04-22T11:53:01.529Z,43.80
2023-04-22T11:55:30.196Z,43.50
2023-04-22T11:57:56.648Z,43.84
2023-04-22T12:00:23.054Z,44.15
2023-04-22T12:02:49.529Z,43.49
2023-04-22T12:05:16.116Z,43.07
2023-04-22T12:07:42.728Z,43.87
2023-04-22T12:10:09.186Z,43.78
2023-04-22T12:12:37.190Z,43.00
2023-04-22T12:15:04.224Z,42.99
2023-04-22T12:17:30.792Z,43.23
2023-04-22T12:19:57.252Z,43.49
2023-04-22T12:22:23.598Z,43.89
2023-04-22T12:24:49.999Z,43.14
2023-04-22T12:27:16.621Z,44.43
2023-04-22T12:29:42.992Z,43.37
2023-04-22T12:32:09.464Z,43.99
2023-04-22T12:34:35.851Z,43.86
2023-04-22T12:37:02.233Z,44.15
2023-04-22T12:39:28.591Z,44.57
2023-04-22T12:41:55.007Z,44.55
2023-04-22T12:44:22.515Z,44.37
2023-04-22T12:46:50.268Z,44.43
2023-04-22T12:49:16.765Z,44.26
2023-04-22T12:51:43.138Z,45.49
2023-04-22T12:54:10.640Z,44.93
2023-04-22T12:56:37.072Z,44.86
2023-04-22T12:59:03.610Z,44.22
2023-04-22T13:01:30.099Z,44.96
2023-04-22T13:03:56.722Z,44.24
2023-04-22T13:06:23.244Z,44.47
2023-04-22T13:08:49.730Z,44.81
2023-04-22T13:11:16.609Z,45.35
2023-04-22T13:13:42.971Z,45.81
2023-04-22T13:16:09.415Z,46.25
2023-04-22T13:18:36.280Z,46.03
2023-04-22T13:21:03.130Z,46.31
2023-04-22T13:23:29.874Z,46.54
2023-04-22T13:25:56.352Z,47.06
2023-04-22T13:28:23.057Z,47.57
2023-04-22T13:30:49.638Z,48.02
2023-04-22T13:33:16.105Z,50.27
2023-04-22T13:35:42.908Z,50.75
2023-04-22T13:38:09.312Z,53.47
2023-04-22T13:40:36.029Z,56.97
2023-04-22T13:43:02.450Z,60.23
2023-04-22T13:45:28.903Z,61.25
2023-04-22T13:47:55.433Z,61.90
2023-04-22T13:50:21.873Z,61.41
2023-04-22T13:52:48.209Z,61.11
2023-04-22T13:55:14.596Z,59.88
2023-04-22T13:57:41.099Z,61.38
2023-04-22T14:00:07.555Z,60.15
2023-04-22T14:02:39.770Z,59.97
2023-04-22T14:05:06.329Z,60.67
2023-04-22T14:07:32.719Z,60.06
2023-04-22T14:09:59.121Z,60.58
2023-04-22T14:12:25.525Z,59.85
2023-04-22T14:14:51.950Z,60.20
2023-04-22T14:17:20.706Z,60.73
2023-04-22T14:19:47.095Z,61.46
2023-04-22T14:22:13.466Z,61.86
2023-04-22T14:24:39.821Z,62.01
2023-04-22T14:27:06.252Z,62.29
2023-04-22T14:29:32.661Z,63.51
2023-04-22T14:31:59.631Z,64.39
2023-04-22T14:34:27.109Z,64.44
2023-04-22T14:36:53.458Z,63.56
2023-04-22T14:39:19.881Z,63.56
2023-04-22T14:41:46.266Z,64.30
2023-04-22T14:44:15.774Z,64.97
2023-04-22T14:46:42.252Z,63.79
2023-04-22T14:49:08.632Z,64.58
2023-04-22T14:51:36.474Z,65.50
2023-04-22T14:54:02.934Z,63.86
2023-04-22T14:56:29.698Z,64.43
2023-04-22T14:58:56.142Z,63.97
2023-04-22T15:01:23.021Z,63.85
2023-04-22T15:03:49.548Z,64.73
2023-04-22T15:06:16.142Z,62.94
2023-04-22T15:08:42.837Z,63.10
2023-04-22T15:11:09.245Z,62.88
2023-04-22T15:13:36.038Z,62.36
2023-04-22T15:16:02.482Z,62.76
2023-04-22T15:18:31.746Z,63.59
2023-04-22T15:20:58.384Z,63.09
2023-04-22T15:23:24.798Z,61.76
2023-04-22T15:25:51.162Z,61.70
2023-04-22T15:28:17.638Z,61.83
2023-04-22T15:30:44.301Z,61.06
2023-04-22T15:33:10.712Z,61.02
2023-04-22T15:35:37.065Z,60.10
2023-04-22T15:38:03.666Z,59.44
2023-04-22T15:40:30.067Z,60.20
2023-04-22T15:42:56.521Z,59.08
2023-04-22T15:45:22.986Z,59.74
2023-04-22T15:47:52.151Z,59.52
2023-04-22T15:50:19.276Z,59.92
2023-04-22T15:52:46.585Z,60.27
2023-04-22T15:55:13.087Z,60.13
2023-04-22T15:57:39.608Z,59.79
2023-04-22T16:00:12.420Z,61.32
2023-04-22T16:02:42.993Z,60.62
2023-04-22T16:05:10.161Z,61.48
2023-04-22T16:07:36.554Z,61.90
2023-04-22T16:10:03.035Z,61.75
2023-04-22T16:12:30.177Z,61.80
2023-04-22T16:14:57.913Z,63.41
2023-04-22T16:17:24.336Z,63.72
2023-04-22T16:19:50.941Z,63.63
2023-04-22T16:22:17.371Z,63.47
2023-04-22T16:24:44.400Z,65.00
2023-04-22T16:27:16.000Z,64.41
2023-04-22T16:29:42.652Z,65.54
2023-04-22T16:32:09.332Z,67.05
2023-04-22T16:34:36.776Z,67.44
2023-04-22T16:37:03.346Z,68.62
2023-04-22T16:39:29.783Z,71.67
2023-04-22T16:41:56.124Z,70.75
2023-04-22T16:44:22.477Z,69.79
2023-04-22T16:46:49.122Z,70.37
2023-04-22T16:49:15.495Z,70.91
2023-04-22T16:51:41.966Z,71.65
2023-04-22T16:54:08.425Z,70.54
2023-04-22T16:56:34.872Z,69.70
2023-04-22T16:59:01.448Z,69.81
2023-04-22T17:01:28.847Z,71.59
2023-04-22T17:03:55.411Z,71.95
2023-04-22T17:06:22.193Z,71.34
2023-04-22T17:08:48.599Z,74.48
2023-04-22T17:11:15.017Z,73.26
2023-04-22T17:13:41.473Z,72.13
2023-04-22T17:16:10.911Z,70.98
2023-04-22T17:18:37.335Z,70.22
2023-04-22T17:21:03.707Z,70.00
2023-04-22T17:23:30.172Z,71.70
2023-04-22T17:25:56.556Z,71.21
2023-04-22T17:28:22.863Z,70.91
2023-04-22T17:30:49.204Z,70.80
2023-04-22T17:33:15.669Z,69.94
2023-04-22T17:35:41.994Z,69.46
2023-04-22T17:38:08.375Z,72.09
2023-04-22T17:40:34.778Z,71.44
2023-04-22T17:43:01.328Z,71.85
2023-04-22T17:45:27.733Z,71.13
2023-04-22T17:47:54.296Z,71.98
2023-04-22T17:50:20.843Z,71.08
2023-04-22T17:52:47.272Z,71.30
2023-04-22T17:55:13.680Z,72.20
2023-04-22T17:57:41.040Z,71.47
2023-04-22T18:00:08.368Z,72.54
2023-04-22T18:02:34.813Z,73.16
2023-04-22T18:05:01.412Z,73.33
2023-04-22T18:07:27.813Z,73.17
2023-04-22T18:09:54.307Z,74.32
2023-04-22T18:12:24.013Z,72.67
2023-04-22T18:14:50.841Z,73.08
2023-04-22T18:17:20.106Z,73.10
2023-04-22T18:19:46.549Z,72.17
2023-04-22T18:22:12.968Z,71.98
2023-04-22T18:24:39.566Z,72.98
2023-04-22T18:27:09.034Z,72.72
2023-04-22T18:29:38.283Z,73.66
2023-04-22T18:32:05.030Z,74.40
2023-04-22T18:34:31.384Z,73.50
2023-04-22T18:36:57.765Z,72.96
2023-04-22T18:39:24.168Z,72.96
2023-04-22T18:41:50.643Z,72.81
2023-04-22T18:44:16.989Z,72.62
2023-04-22T18:46:43.428Z,72.72
2023-04-22T18:49:09.803Z,71.68
2023-04-22T18:51:36.161Z,72.52
2023-04-22T18:54:02.551Z,70.70
2023-04-22T18:56:32.721Z,71.49
2023-04-22T18:58:59.123Z,70.58
2023-04-22T19:01:25.592Z,71.84
2023-04-22T19:03:52.172Z,74.50
2023-04-22T19:06:18.568Z,77.41
2023-04-22T19:08:45.126Z,76.87
2023-04-22T19:11:11.730Z,77.32
2023-04-22T19:13:38.253Z,77.09
2023-04-22T19:16:04.784Z,76.23
2023-04-22T19:18:31.344Z,76.64
2023-04-22T19:20:57.752Z,77.54
2023-04-22T19:23:24.897Z,77.33
2023-04-22T19:25:51.851Z,77.95
2023-04-22T19:28:18.283Z,77.47
2023-04-22T19:30:44.667Z,77.25
2023-04-22T19:33:11.688Z,77.41
2023-04-22T19:35:38.115Z,77.43
2023-04-22T19:38:04.728Z,78.28
2023-04-22T19:40:31.152Z,78.61
2023-04-22T19:42:59.079Z,77.77
2023-04-22T19:45:25.763Z,78.61
2023-04-22T19:47:52.161Z,75.97
2023-04-22T19:50:18.652Z,77.86
2023-04-22T19:52:45.015Z,78.58
2023-04-22T19:55:11.871Z,77.42
2023-04-22T19:57:38.593Z,77.79
2023-04-22T20:00:07.043Z,79.28
2023-04-22T20:02:38.812Z,76.53
2023-04-22T20:05:05.778Z,76.23
2023-04-22T20:07:32.768Z,77.29
2023-04-22T20:09:59.251Z,77.62
2023-04-22T20:12:26.081Z,75.50
2023-04-22T20:14:52.688Z,74.73
2023-04-22T20:17:19.054Z,74.32
2023-04-22T20:19:45.478Z,75.18
2023-04-22T20:22:13.670Z,72.38
2023-04-22T20:24:41.177Z,72.01
2023-04-22T20:27:07.744Z,70.16
2023-04-22T20:29:34.453Z,70.91
2023-04-22T20:32:00.943Z,72.16
2023-04-22T20:34:27.363Z,71.91
2023-04-22T20:36:54.818Z,72.93
2023-04-22T20:39:21.291Z,74.12
2023-04-22T20:41:48.922Z,73.23
2023-04-22T20:44:15.394Z,74.98
2023-04-22T20:46:41.760Z,74.00
2023-04-22T20:49:08.286Z,74.48
2023-04-22T20:51:35.133Z,74.71
2023-04-22T20:54:01.790Z,74.50
2023-04-22T20:56:28.239Z,73.48
2023-04-22T20:58:54.634Z,72.15
2023-04-22T21:01:21.124Z,71.55
2023-04-22T21:03:47.692Z,72.73
2023-04-22T21:06:14.218Z,71.74
2023-04-22T21:08:40.858Z,71.35
2023-04-22T21:11:07.338Z,70.65
2023-04-22T21:13:33.978Z,71.09
2023-04-22T21:16:00.654Z,71.16
2023-04-22T21:18:27.059Z,72.34
2023-04-22T21:20:53.833Z,71.70
2023-04-22T21:23:20.546Z,70.75
2023-04-22T21:25:50.650Z,71.24
2023-04-22T21:28:18.062Z,70.55
2023-04-22T21:30:44.510Z,68.57
2023-04-22T21:33:13.705Z,69.39
2023-04-22T21:35:43.687Z,69.14
2023-04-22T21:38:10.115Z,67.30
2023-04-22T21:40:36.511Z,68.09
2023-04-22T21:43:04.496Z,67.46
2023-04-22T21:45:31.178Z,66.13
2023-04-22T21:48:00.389Z,67.58
2023-04-22T21:50:26.848Z,66.51
2023-04-22T21:52:53.195Z,65.87
2023-04-22T21:55:19.830Z,67.82
2023-04-22T21:57:46.395Z,67.87
2023-04-22T22:00:18.577Z,66.48
2023-04-22T22:02:47.131Z,67.43
2023-04-22T22:05:13.709Z,67.26
2023-04-22T22:07:42.742Z,67.85
2023-04-22T22:10:11.999Z,66.66
2023-04-22T22:12:38.613Z,66.16
2023-04-22T22:15:09.889Z,66.21
2023-04-22T22:17:42.518Z,66.63
2023-04-22T22:20:12.172Z,67.55
2023-04-22T22:22:38.642Z,67.09
2023-04-22T22:25:08.479Z,69.73
2023-04-22T22:27:34.887Z,67.68
2023-04-22T22:30:01.277Z,67.74
2023-04-22T22:32:29.868Z,67.35
2023-04-22T22:34:56.429Z,67.06
2023-04-22T22:37:25.894Z,66.90
2023-04-22T22:39:55.214Z,66.99
2023-04-22T22:42:21.984Z,66.84
2023-04-22T22:44:50.326Z,66.75
2023-04-22T22:47:24.760Z,66.73
2023-04-22T22:49:51.734Z,66.52
2023-04-22T22:52:18.496Z,66.47
2023-04-22T22:54:45.408Z,67.47
2023-04-22T22:57:12.419Z,66.52
2023-04-22T22:59:39.157Z,67.33
2023-04-22T23:02:05.774Z,66.39
2023-04-22T23:04:33.178Z,66.74
2023-04-22T23:07:02.246Z,65.17
2023-04-22T23:09:31.339Z,64.38
2023-04-22T23:11:57.883Z,66.31
2023-04-22T23:14:24.265Z,66.47
2023-04-22T23:16:54.142Z,67.44
2023-04-22T23:19:23.599Z,66.16
2023-04-22T23:21:50.047Z,66.03
2023-04-22T23:24:16.799Z,65.45
2023-04-22T23:26:43.237Z,64.46
2023-04-22T23:29:09.925Z,63.90
2023-04-22T23:31:36.353Z,65.81
2023-04-22T23:34:02.777Z,65.65
2023-04-22T23:36:29.147Z,65.53
2023-04-22T23:38:57.753Z,64.00
2023-04-22T23:41:24.322Z,63.84
2023-04-22T23:43:50.726Z,63.88
2023-04-22T23:46:18.679Z,65.21
2023-04-22T23:48:45.425Z,65.31
2023-04-22T23:51:16.022Z,65.22
2023-04-22T23:53:42.405Z,65.31
2023-04-22T23:56:09.277Z,65.77
2023-04-22T23:58:35.712Z,64.96
